Terminal Aerodrome Forecast
Issued by NWS Shreveport, LA

Home | Current Version | Previous Version | Text Only | Print | Product List | Glossary On
Versions: 1 2 3 4 5 6 7 8 9 10 11 12 13 14 15 16 17 18 19 20 21 22 23 24 25 26 27 28 29 30 31 32 33 34
000
FTUS44 KSHV 042323
TAFGGG
TAF
KGGG 042323Z 0500/0524 20009KT P6SM BKN035
     FM050100 19003KT P6SM SCT250
     FM050900 19006KT 6SM BR BKN007
     FM051400 22007KT P6SM SCT025
     FM051900 22006KT P6SM OVC100=

USA.gov is the U.S. government's official web portal to all federal, state and local government web resources and services.